Time;durP1;ratioP1;P1;durP2;ratioP2;P2;SDS_P1;SDS_P2;PMS_P1;PMS_P2;Temp;Humidity;BMP_temperature;BMP_pressure;BME280_temperature;BME280_humidity;BME280_pressure;Samples;Min_cycle;Max_cycle;Signal;HPM_P1;HPM_P2
2023/06/17 00:00:48;;;;;;;6.18;3.55;;;;;;;18.42;100.00;101582.19;5265778;28;20397;-72
2023/06/17 00:03:19;;;;;;;6.65;3.67;;;;;;;18.35;100.00;101586.59;5268636;28;20126;-73
2023/06/17 00:05:54;;;;;;;6.20;3.47;;;;;;;18.36;100.00;101579.38;5265277;28;20034;-72
2023/06/17 00:08:25;;;;;;;5.15;3.80;;;;;;;18.28;100.00;101578.38;5264577;28;20032;-72
2023/06/17 00:10:56;;;;;;;5.32;3.45;;;;;;;18.23;100.00;101578.06;5268352;28;20535;-71
2023/06/17 00:13:28;;;;;;;4.50;3.85;;;;;;;18.08;100.00;101575.25;5265174;28;20082;-71
2023/06/17 00:16:00;;;;;;;4.80;3.55;;;;;;;18.06;100.00;101571.06;5264714;28;20397;-72
2023/06/17 00:18:32;;;;;;;8.80;3.95;;;;;;;18.02;100.00;101573.25;5265585;28;20028;-72
2023/06/17 00:21:03;;;;;;;6.93;5.20;;;;;;;17.93;100.00;101563.47;5269947;28;20032;-72
2023/06/17 00:23:35;;;;;;;5.25;3.85;;;;;;;17.92;100.00;101565.34;5269307;28;20028;-73
2023/06/17 00:26:06;;;;;;;8.00;4.45;;;;;;;17.86;100.00;101554.41;5268839;28;20526;-71
2023/06/17 00:28:40;;;;;;;10.10;4.03;;;;;;;17.87;100.00;101548.00;5269256;28;20556;-71
2023/06/17 00:31:11;;;;;;;8.70;3.83;;;;;;;17.83;100.00;101560.09;5267433;28;20163;-72
2023/06/17 00:33:43;;;;;;;5.10;4.20;;;;;;;17.71;100.00;101547.00;5268288;28;20025;-72
2023/06/17 00:36:14;;;;;;;6.22;4.45;;;;;;;17.66;100.00;101562.84;5268873;28;20196;-72
2023/06/17 00:38:45;;;;;;;6.45;4.70;;;;;;;17.67;100.00;101561.84;5276981;28;20016;-72
2023/06/17 00:41:17;;;;;;;7.38;4.43;;;;;;;17.55;100.00;101557.81;5271114;28;20033;-72
2023/06/17 00:43:48;;;;;;;9.48;4.68;;;;;;;17.52;100.00;101559.00;5266942;28;20028;-72
2023/06/17 00:46:36;;;;;;;6.03;4.65;;;;;;;17.56;100.00;101559.50;5268432;28;21300;-71
2023/06/17 00:49:11;;;;;;;7.05;4.40;;;;;;;17.52;100.00;101563.56;5268698;28;20427;-71
2023/06/17 00:51:44;;;;;;;9.02;4.75;;;;;;;17.50;100.00;101560.19;5268708;28;20036;-73
2023/06/17 00:54:15;;;;;;;7.43;4.78;;;;;;;17.45;100.00;101562.56;5272917;28;20099;-73
2023/06/17 00:56:48;;;;;;;8.05;4.88;;;;;;;17.43;100.00;101560.03;5268988;28;20046;-71
2023/06/17 00:59:19;;;;;;;8.13;4.82;;;;;;;17.38;100.00;101559.69;5275732;28;20060;-73
2023/06/17 01:01:50;;;;;;;6.63;4.65;;;;;;;17.36;100.00;101557.16;5267844;28;20024;-71
2023/06/17 01:04:22;;;;;;;6.65;5.10;;;;;;;17.24;100.00;101558.50;5276653;28;20035;-72
2023/06/17 01:07:01;;;;;;;12.25;5.20;;;;;;;17.30;100.00;101559.69;5270676;28;20029;-71
2023/06/17 01:09:37;;;;;;;8.38;4.82;;;;;;;17.20;100.00;101558.00;5275234;28;20047;-74
2023/06/17 01:12:11;;;;;;;7.10;5.25;;;;;;;17.15;100.00;101552.28;5270509;28;20064;-74
2023/06/17 01:14:45;;;;;;;5.90;4.75;;;;;;;17.12;100.00;101554.47;5267669;28;20043;-71
2023/06/17 01:17:18;;;;;;;31.20;7.30;;;;;;;17.14;100.00;101552.44;5267540;28;20116;-73
2023/06/17 01:19:49;;;;;;;8.73;5.30;;;;;;;17.07;100.00;101548.75;5270088;28;20503;-71
2023/06/17 01:22:23;;;;;;;7.57;4.70;;;;;;;16.97;100.00;101551.59;5268764;28;20111;-73
2023/06/17 01:24:56;;;;;;;9.25;5.20;;;;;;;16.89;100.00;101552.44;5267935;28;20031;-72
2023/06/17 01:27:28;;;;;;;5.88;4.70;;;;;;;16.86;100.00;101555.47;5268138;28;20171;-73
2023/06/17 01:30:00;;;;;;;6.95;4.57;;;;;;;16.73;100.00;101558.63;5267584;28;20068;-72
2023/06/17 01:32:32;;;;;;;8.52;4.85;;;;;;;16.82;100.00;101551.38;5268018;28;20033;-70
2023/06/17 01:35:07;;;;;;;10.35;5.00;;;;;;;16.85;100.00;101552.94;5267026;28;20058;-72
2023/06/17 01:37:57;;;;;;;7.20;4.70;;;;;;;16.83;100.00;101547.69;5268296;28;20178;-72
2023/06/17 01:40:30;;;;;;;8.80;5.40;;;;;;;16.68;100.00;101546.66;5271342;28;20032;-72
2023/06/17 01:43:04;;;;;;;13.27;5.80;;;;;;;16.69;100.00;101551.00;5272564;28;20497;-72
2023/06/17 01:45:35;;;;;;;9.20;5.45;;;;;;;16.61;100.00;101550.00;5268890;28;20039;-71
2023/06/17 01:48:07;;;;;;;8.55;5.53;;;;;;;16.68;100.00;101547.50;5267148;28;20033;-72
2023/06/17 01:50:38;;;;;;;8.57;5.95;;;;;;;16.59;100.00;101543.94;5267720;28;20119;-72
2023/06/17 01:53:10;;;;;;;6.20;5.55;;;;;;;16.52;100.00;101542.06;5273277;28;20036;-72
2023/06/17 01:55:41;;;;;;;8.82;6.28;;;;;;;16.47;100.00;101545.25;5267812;28;20490;-73
2023/06/17 01:58:12;;;;;;;8.50;6.28;;;;;;;16.44;100.00;101543.75;5266770;28;20060;-72
2023/06/17 02:00:44;;;;;;;10.45;6.30;;;;;;;16.45;100.00;101545.41;5267488;28;20134;-72
2023/06/17 02:03:18;;;;;;;6.22;5.45;;;;;;;16.49;100.00;101542.41;5274406;28;20024;-72
2023/06/17 02:05:50;;;;;;;6.78;5.85;;;;;;;16.37;100.00;101542.69;5267455;28;20027;-72
2023/06/17 02:08:22;;;;;;;7.03;6.25;;;;;;;16.26;100.00;101538.44;5274370;28;20401;-73
2023/06/17 02:10:54;;;;;;;7.18;5.68;;;;;;;16.23;100.00;101528.03;5274456;28;20205;-73
2023/06/17 02:13:25;;;;;;;8.50;6.28;;;;;;;16.18;100.00;101529.50;5266671;28;20519;-71
2023/06/17 02:15:56;;;;;;;6.97;6.28;;;;;;;16.11;100.00;101536.53;5267086;28;20051;-71
2023/06/17 02:18:28;;;;;;;6.97;5.80;;;;;;;16.23;100.00;101535.25;5266998;28;20028;-71
2023/06/17 02:21:00;;;;;;;11.68;6.43;;;;;;;16.23;100.00;101537.94;5266461;28;20032;-72
2023/06/17 02:23:31;;;;;;;10.65;5.97;;;;;;;16.21;100.00;101535.41;5267047;28;20181;-72
2023/06/17 02:26:03;;;;;;;9.43;5.65;;;;;;;16.13;100.00;101534.53;5274194;28;20029;-71
2023/06/17 02:28:34;;;;;;;8.10;6.53;;;;;;;16.11;100.00;101533.84;5272388;28;20366;-72
2023/06/17 02:31:05;;;;;;;14.73;10.65;;;;;;;16.03;100.00;101523.91;5269585;28;20439;-73
2023/06/17 02:33:37;;;;;;;11.30;8.43;;;;;;;16.04;100.00;101530.97;5264790;28;20465;-72
2023/06/17 02:36:08;;;;;;;9.25;7.85;;;;;;;16.03;100.00;101526.59;5273223;28;20602;-71
2023/06/17 02:38:40;;;;;;;11.15;7.80;;;;;;;15.93;100.00;101521.31;5269211;28;20098;-72
2023/06/17 02:41:12;;;;;;;9.25;8.25;;;;;;;15.90;100.00;101527.06;5270366;28;20777;-71
2023/06/17 02:43:43;;;;;;;10.15;9.13;;;;;;;15.90;100.00;101515.44;5266447;28;20032;-72
2023/06/17 02:46:15;;;;;;;12.30;8.90;;;;;;;15.86;100.00;101514.91;5266286;28;20092;-72
2023/06/17 02:48:47;;;;;;;11.90;9.02;;;;;;;15.86;100.00;101517.59;5272224;28;20049;-72
2023/06/17 02:51:18;;;;;;;12.23;8.80;;;;;;;15.83;100.00;101515.22;5266155;28;20024;-74
2023/06/17 02:53:50;;;;;;;12.43;8.90;;;;;;;15.74;100.00;101513.47;5272303;28;20028;-70
2023/06/17 02:56:21;;;;;;;11.35;9.13;;;;;;;15.74;100.00;101518.84;5277092;28;20036;-72
2023/06/17 02:58:53;;;;;;;10.07;8.55;;;;;;;15.74;100.00;101519.69;5265993;28;20505;-72
2023/06/17 03:01:24;;;;;;;10.95;8.40;;;;;;;15.71;100.00;101514.66;5265672;28;20042;-72
2023/06/17 03:03:56;;;;;;;8.68;7.35;;;;;;;15.63;100.00;101509.22;5268823;28;20028;-71
2023/06/17 03:06:33;;;;;;;10.10;7.38;;;;;;;15.59;100.00;101510.56;5266195;28;20565;-72
2023/06/17 03:09:05;;;;;;;8.50;7.20;;;;;;;15.44;100.00;101508.41;5264120;28;20028;-71
2023/06/17 03:11:37;;;;;;;8.05;7.18;;;;;;;15.52;100.00;101514.88;5269215;28;20477;-72
2023/06/17 03:14:08;;;;;;;10.35;7.15;;;;;;;15.42;100.00;101501.53;5264501;28;20024;-71
2023/06/17 03:16:40;;;;;;;8.73;7.82;;;;;;;15.39;100.00;101504.53;5266735;28;20037;-73
2023/06/17 03:19:11;;;;;;;9.50;7.68;;;;;;;15.32;100.00;101502.47;5265916;28;20031;-71
2023/06/17 03:21:43;;;;;;;8.82;7.50;;;;;;;15.29;100.00;101502.78;5265510;28;20032;-71
2023/06/17 03:24:14;;;;;;;8.35;7.35;;;;;;;15.25;100.00;101505.94;5263478;28;20040;-71
2023/06/17 03:26:46;;;;;;;8.77;7.25;;;;;;;15.30;100.00;101499.13;5265922;28;20067;-72
2023/06/17 03:29:17;;;;;;;12.02;8.48;;;;;;;15.19;100.00;101506.59;5265199;28;20028;-71
2023/06/17 03:31:48;;;;;;;10.73;7.63;;;;;;;15.16;100.00;101498.81;5264951;28;20028;-72
2023/06/17 03:34:19;;;;;;;9.45;7.47;;;;;;;15.19;100.00;101498.53;5264800;28;20040;-72
2023/06/17 03:36:51;;;;;;;9.02;7.50;;;;;;;15.24;100.00;101504.28;5264665;28;20021;-72
2023/06/17 03:39:22;;;;;;;10.27;8.13;;;;;;;15.25;100.00;101501.44;5269796;28;20513;-71
2023/06/17 03:41:54;;;;;;;12.43;7.88;;;;;;;15.13;100.00;101497.31;5266757;28;20079;-70
2023/06/17 03:44:25;;;;;;;8.13;7.30;;;;;;;15.10;100.00;101500.31;5265398;28;20051;-72
2023/06/17 03:46:57;;;;;;;8.35;7.43;;;;;;;15.10;100.00;101503.00;5264549;28;20036;-72
2023/06/17 03:49:28;;;;;;;9.88;7.32;;;;;;;15.18;100.00;101492.31;5266028;28;20020;-72
2023/06/17 03:52:00;;;;;;;11.45;8.38;;;;;;;15.21;100.00;101486.59;5265259;28;20555;-72
2023/06/17 03:54:32;;;;;;;11.88;7.32;;;;;;;15.25;100.00;101504.13;5269946;28;20027;-72
2023/06/17 03:57:04;;;;;;;8.50;7.70;;;;;;;15.22;100.00;101496.38;5264967;28;20516;-71
2023/06/17 03:59:36;;;;;;;8.85;7.95;;;;;;;15.29;100.00;101485.84;5263753;28;20020;-71
2023/06/17 04:02:08;;;;;;;10.25;8.90;;;;;;;15.21;100.00;101496.50;5264339;28;20025;-72
2023/06/17 04:04:39;;;;;;;10.40;8.80;;;;;;;15.21;100.00;101489.28;5268022;28;20605;-71
2023/06/17 04:07:11;;;;;;;9.40;8.50;;;;;;;15.29;100.00;101496.59;5265403;28;20081;-74
2023/06/17 04:09:42;;;;;;;9.52;8.40;;;;;;;15.31;100.00;101486.50;5265345;28;20449;-71
2023/06/17 04:12:15;;;;;;;9.27;7.68;;;;;;;15.32;100.00;101490.88;5268402;28;20075;-72
2023/06/17 04:14:47;;;;;;;11.02;8.27;;;;;;;15.26;100.00;101495.03;5263451;28;20421;-71
2023/06/17 04:17:19;;;;;;;8.45;7.60;;;;;;;15.26;100.00;101489.66;5264481;28;20145;-72
2023/06/17 04:19:54;;;;;;;11.32;7.88;;;;;;;15.24;100.00;101493.53;5267090;28;20053;-71
2023/06/17 04:22:25;;;;;;;10.07;8.52;;;;;;;15.29;100.00;101507.34;5265232;28;20115;-71
2023/06/17 04:24:57;;;;;;;10.52;8.52;;;;;;;15.31;100.00;101497.25;5264591;28;20024;-73
2023/06/17 04:27:29;;;;;;;9.35;8.32;;;;;;;15.30;100.00;101500.94;5265191;28;20028;-72
2023/06/17 04:30:01;;;;;;;12.18;8.60;;;;;;;15.29;100.00;101510.84;5264330;28;20059;-73
2023/06/17 04:32:34;;;;;;;10.18;8.95;;;;;;;15.35;100.00;101504.00;5276594;28;20041;-74
2023/06/17 04:35:06;;;;;;;9.27;8.25;;;;;;;15.39;100.00;101504.53;5263664;28;20485;-72
2023/06/17 04:37:40;;;;;;;11.30;9.98;;;;;;;15.42;100.00;101502.34;5264475;28;20035;-71
2023/06/17 04:40:12;;;;;;;12.38;9.85;;;;;;;15.42;100.00;101505.06;5266818;28;20024;-71
2023/06/17 04:42:45;;;;;;;11.25;9.40;;;;;;;15.55;100.00;101503.78;5266079;28;20039;-72
2023/06/17 04:45:17;;;;;;;14.85;12.75;;;;;;;15.47;100.00;101507.28;5264101;28;20444;-72
2023/06/17 04:47:48;;;;;;;16.08;13.32;;;;;;;15.53;100.00;101512.00;5265120;28;20038;-72
2023/06/17 04:50:20;;;;;;;17.80;15.32;;;;;;;15.56;100.00;101511.69;5264783;28;20413;-72
2023/06/17 04:52:52;;;;;;;18.52;14.88;;;;;;;15.63;100.00;101512.75;5270065;28;20508;-72
2023/06/17 04:55:23;;;;;;;16.33;14.35;;;;;;;15.69;100.00;101513.97;5264368;28;20028;-72
2023/06/17 04:57:54;;;;;;;14.88;13.40;;;;;;;15.74;100.00;101510.78;5263988;28;20020;-72
2023/06/17 05:00:26;;;;;;;16.63;13.18;;;;;;;15.87;100.00;101511.22;5270545;28;20044;-72
2023/06/17 05:02:57;;;;;;;15.18;12.35;;;;;;;15.92;100.00;101522.34;5266684;28;20032;-71
2023/06/17 05:05:28;;;;;;;14.15;12.75;;;;;;;15.99;100.00;101522.56;5268113;28;20089;-71
2023/06/17 05:08:00;;;;;;;14.80;13.27;;;;;;;16.01;100.00;101516.00;5270262;28;20101;-72
2023/06/17 05:10:34;;;;;;;14.88;13.25;;;;;;;16.03;100.00;101521.22;5268581;28;20024;-71
2023/06/17 05:13:05;;;;;;;15.13;12.25;;;;;;;16.13;100.00;101521.94;5270693;28;20468;-72
2023/06/17 05:15:36;;;;;;;24.70;14.18;;;;;;;16.17;100.00;101527.84;5267958;28;20024;-72
2023/06/17 05:18:08;;;;;;;14.07;12.68;;;;;;;16.35;100.00;101533.94;5267889;28;20027;-72
2023/06/17 05:20:39;;;;;;;16.40;13.68;;;;;;;16.43;100.00;101525.91;5268385;28;20025;-72
2023/06/17 05:23:11;;;;;;;17.85;15.00;;;;;;;16.48;100.00;101532.63;5267415;28;20024;-72
2023/06/17 05:25:42;;;;;;;17.02;15.25;;;;;;;16.55;100.00;101528.25;5268001;28;20292;-72
2023/06/17 05:28:13;;;;;;;18.63;16.00;;;;;;;16.59;100.00;101529.63;5266848;28;20381;-72
2023/06/17 05:30:45;;;;;;;22.92;16.38;;;;;;;16.68;100.00;101528.63;5268509;28;20035;-72
2023/06/17 05:33:16;;;;;;;18.30;16.40;;;;;;;16.72;100.00;101526.44;5266868;28;20043;-72
2023/06/17 05:35:47;;;;;;;18.15;15.88;;;;;;;16.88;100.00;101537.25;5268088;28;20431;-72
2023/06/17 05:38:19;;;;;;;18.33;16.23;;;;;;;16.90;100.00;101537.09;5267410;28;20056;-72
2023/06/17 05:40:50;;;;;;;19.55;16.75;;;;;;;16.96;100.00;101523.81;5272446;28;20101;-72
2023/06/17 05:43:25;;;;;;;18.75;16.98;;;;;;;17.05;100.00;101524.66;5267255;28;20025;-72
2023/06/17 05:45:57;;;;;;;17.42;15.82;;;;;;;17.12;100.00;101524.81;5268251;28;20361;-71
2023/06/17 05:48:29;;;;;;;18.25;16.48;;;;;;;17.27;100.00;101525.84;5268302;28;20370;-71
2023/06/17 05:51:00;;;;;;;18.55;16.75;;;;;;;17.33;100.00;101525.13;5267165;28;20728;-72
2023/06/17 05:53:31;;;;;;;16.13;14.57;;;;;;;17.49;100.00;101537.75;5273299;28;20494;-73
2023/06/17 05:56:07;;;;;;;17.10;15.20;;;;;;;17.56;100.00;101524.44;5267588;28;20135;-72
2023/06/17 05:58:38;;;;;;;15.75;14.15;;;;;;;17.65;100.00;101533.34;5273254;28;20020;-72
2023/06/17 06:01:10;;;;;;;15.48;13.75;;;;;;;17.78;100.00;101528.25;5266840;28;20535;-73
2023/06/17 06:03:41;;;;;;;15.07;12.93;;;;;;;17.93;100.00;101518.47;5268454;28;20028;-73
2023/06/17 06:06:12;;;;;;;16.83;12.80;;;;;;;17.95;100.00;101524.53;5268611;28;20637;-72
2023/06/17 06:08:44;;;;;;;14.52;13.05;;;;;;;18.16;100.00;101516.84;5272139;28;20052;-73
2023/06/17 06:11:16;;;;;;;15.10;12.82;;;;;;;18.30;100.00;101525.06;5269709;28;20755;-74
2023/06/17 06:13:47;;;;;;;19.25;17.33;;;;;;;18.58;100.00;101524.53;5266752;28;20466;-74
2023/06/17 06:16:18;;;;;;;13.68;12.27;;;;;;;18.70;100.00;101524.97;5265758;28;20059;-73
2023/06/17 06:18:49;;;;;;;13.85;12.10;;;;;;;18.97;100.00;101529.03;5266311;28;20278;-72
2023/06/17 06:21:21;;;;;;;12.45;10.90;;;;;;;19.13;100.00;101521.81;5266737;28;20064;-72
2023/06/17 06:23:52;;;;;;;10.45;9.45;;;;;;;19.40;100.00;101523.91;5271619;28;20604;-73
2023/06/17 06:26:24;;;;;;;11.07;9.95;;;;;;;19.69;100.00;101524.97;5267479;28;20424;-73
2023/06/17 06:28:55;;;;;;;12.45;9.85;;;;;;;19.87;100.00;101521.91;5266097;28;20024;-72
2023/06/17 06:31:26;;;;;;;10.57;9.18;;;;;;;20.09;100.00;101521.97;5266372;28;20746;-74
2023/06/17 06:33:58;;;;;;;17.73;10.45;;;;;;;20.52;100.00;101517.50;5263885;28;20082;-73
2023/06/17 06:36:29;;;;;;;11.25;9.60;;;;;;;20.64;100.00;101525.16;5274450;28;20036;-82
2023/06/17 06:39:00;;;;;;;9.65;8.65;;;;;;;20.79;100.00;101531.34;5286043;28;20016;-82
2023/06/17 06:41:31;;;;;;;10.82;8.43;;;;;;;21.10;100.00;101519.31;5292757;28;20031;-82
2023/06/17 06:44:03;;;;;;;16.05;9.30;;;;;;;21.42;100.00;101527.91;5291665;28;20016;-82
2023/06/17 06:46:34;;;;;;;10.00;8.50;;;;;;;21.61;100.00;101523.69;5295121;28;20036;-82
2023/06/17 06:49:06;;;;;;;11.00;7.85;;;;;;;21.97;100.00;101522.66;5297424;28;20012;-82
2023/06/17 06:51:39;;;;;;;8.23;7.40;;;;;;;22.16;100.00;101523.75;5291517;28;20065;-82
2023/06/17 06:54:10;;;;;;;9.98;8.43;;;;;;;22.37;100.00;101530.97;5281679;28;20024;-83
2023/06/17 06:56:42;;;;;;;9.43;7.50;;;;;;;22.69;100.00;101529.41;5285573;28;20111;-83
2023/06/17 06:59:13;;;;;;;8.55;6.88;;;;;;;22.76;100.00;101532.97;5291869;28;20340;-82
2023/06/17 07:01:45;;;;;;;11.45;7.88;;;;;;;23.00;100.00;101522.53;5282099;28;20488;-82
2023/06/17 07:04:17;;;;;;;9.07;7.13;;;;;;;23.36;100.00;101524.84;5291301;28;20028;-83
2023/06/17 07:06:49;;;;;;;7.47;5.60;;;;;;;23.45;100.00;101513.75;5285246;28;20024;-83
2023/06/17 07:09:23;;;;;;;10.60;5.75;;;;;;;23.50;100.00;101516.69;5277661;28;20057;-84
2023/06/17 07:11:55;;;;;;;8.35;5.43;;;;;;;23.80;100.00;101522.47;5278121;28;20032;-83
2023/06/17 07:14:27;;;;;;;8.82;5.40;;;;;;;23.93;100.00;101516.16;5272838;28;20518;-83
2023/06/17 07:16:58;;;;;;;8.02;5.60;;;;;;;24.08;100.00;101521.38;5270765;28;20020;-84
2023/06/17 07:19:33;;;;;;;7.57;6.10;;;;;;;24.27;100.00;101525.06;5272533;28;20450;-86
2023/06/17 07:22:04;;;;;;;8.32;5.55;;;;;;;24.55;100.00;101523.91;5269812;28;20331;-84
2023/06/17 07:24:36;;;;;;;11.75;7.45;;;;;;;24.79;98.84;101525.84;5268270;28;20016;-83
2023/06/17 07:27:07;;;;;;;11.88;5.90;;;;;;;25.01;98.62;101528.19;5267961;28;20246;-83
2023/06/17 07:29:42;;;;;;;8.95;5.07;;;;;;;25.21;94.56;101528.84;5271845;28;20048;-84
2023/06/17 07:32:13;;;;;;;7.03;5.22;;;;;;;25.20;88.50;101526.34;5267597;28;20401;-84
2023/06/17 07:34:56;;;;;;;6.68;5.30;;;;;;;25.80;90.97;101525.78;5279176;28;20035;-85
2023/06/17 07:37:27;;;;;;;9.75;6.38;;;;;;;25.79;89.21;101524.94;5280206;28;20382;-83
2023/06/17 07:40:01;;;;;;;8.68;6.28;;;;;;;25.81;88.03;101522.81;5269516;28;20027;-82
2023/06/17 07:42:32;;;;;;;8.18;5.72;;;;;;;25.98;84.57;101522.22;5275662;28;20083;-83
2023/06/17 07:45:07;;;;;;;13.20;6.60;;;;;;;26.20;87.33;101517.13;5276164;28;20092;-83
2023/06/17 07:47:39;;;;;;;9.57;6.00;;;;;;;26.33;86.71;101516.09;5273471;28;20029;-83
2023/06/17 07:50:10;;;;;;;7.25;5.18;;;;;;;26.85;84.33;101516.41;5274877;28;20094;-83
2023/06/17 07:52:41;;;;;;;9.02;5.03;;;;;;;26.98;82.43;101518.94;5270563;28;20039;-84
2023/06/17 07:55:13;;;;;;;5.90;4.68;;;;;;;27.01;80.63;101514.06;5273919;28;20050;-84
2023/06/17 07:57:44;;;;;;;9.80;4.95;;;;;;;27.09;81.35;101508.25;5272098;28;20030;-83
2023/06/17 08:00:16;;;;;;;5.57;4.97;;;;;;;27.32;77.79;101511.03;5276509;28;20367;-84
2023/06/17 08:02:48;;;;;;;9.15;5.75;;;;;;;27.52;75.54;101501.59;5272898;28;20035;-84
2023/06/17 08:05:20;;;;;;;8.70;5.10;;;;;;;27.75;76.94;101503.47;5277349;28;20476;-84
2023/06/17 08:07:51;;;;;;;12.38;5.40;;;;;;;27.81;73.42;101510.72;5274802;28;20025;-84
2023/06/17 08:10:25;;;;;;;12.18;5.03;;;;;;;28.03;73.19;101508.22;5270975;28;20035;-82
2023/06/17 08:12:57;;;;;;;9.75;5.13;;;;;;;28.05;71.77;101511.53;5271373;28;20389;-84
2023/06/17 08:15:28;;;;;;;11.15;5.53;;;;;;;28.26;74.01;101499.06;5266911;28;20311;-84
2023/06/17 08:17:59;;;;;;;6.75;4.90;;;;;;;28.53;73.33;101503.94;5267500;28;20036;-83
2023/06/17 08:20:31;;;;;;;9.68;5.50;;;;;;;28.61;71.78;101513.69;5267552;28;20028;-83
2023/06/17 08:23:02;;;;;;;6.78;4.55;;;;;;;28.63;69.66;101501.41;5266563;28;20036;-83
2023/06/17 08:25:34;;;;;;;7.95;4.88;;;;;;;28.93;66.45;101500.25;5265889;28;20034;-85
2023/06/17 08:28:05;;;;;;;7.88;4.80;;;;;;;29.28;65.80;101509.31;5269479;28;20029;-83
2023/06/17 08:30:37;;;;;;;12.53;4.70;;;;;;;29.27;64.27;101508.50;5271809;28;20039;-84
2023/06/17 08:33:08;;;;;;;8.05;4.15;;;;;;;29.58;65.72;101496.03;5270248;28;20298;-84
2023/06/17 08:35:41;;;;;;;9.63;4.35;;;;;;;29.93;63.23;101497.63;5268362;28;21168;-84
2023/06/17 08:38:13;;;;;;;7.20;4.50;;;;;;;29.70;59.50;101498.66;5275072;28;20469;-84
2023/06/17 08:40:45;;;;;;;5.78;4.10;;;;;;;29.79;61.68;101496.34;5277787;28;20117;-83
2023/06/17 08:43:18;;;;;;;12.18;5.80;;;;;;;29.94;57.58;101492.94;5272715;28;20119;-83
2023/06/17 08:45:55;;;;;;;5.82;4.20;;;;;;;30.20;56.58;101496.81;5270783;28;20040;-83
2023/06/17 08:48:26;;;;;;;7.50;4.15;;;;;;;30.23;54.97;101495.47;5282776;28;20338;-82
2023/06/17 08:50:58;;;;;;;11.65;4.25;;;;;;;30.53;54.93;101494.97;5272657;28;20102;-84
2023/06/17 08:53:30;;;;;;;6.72;4.70;;;;;;;30.61;54.86;101491.75;5271007;28;20032;-83
2023/06/17 08:56:01;;;;;;;7.85;4.90;;;;;;;30.87;53.29;101483.69;5272204;28;20079;-84
2023/06/17 08:58:37;;;;;;;6.65;5.43;;;;;;;31.12;48.32;101485.84;5279228;28;20020;-83
2023/06/17 09:01:08;;;;;;;;;;;;;;;31.90;51.07;101496.19;5276541;28;20032;-83
2023/06/17 09:03:42;;;;;;;9.18;4.15;;;;;;;31.25;46.22;101490.88;5286888;28;19920;-85
2023/06/17 09:06:21;;;;;;;12.02;4.93;;;;;;;31.48;46.10;101491.56;5288335;28;20038;-85
2023/06/17 09:08:54;;;;;;;8.50;4.82;;;;;;;31.45;45.18;101494.84;5275174;28;20109;-83
2023/06/17 09:11:28;;;;;;;5.65;4.28;;;;;;;31.85;42.79;101496.16;5282865;28;20470;-83
2023/06/17 09:14:03;;;;;;;9.88;4.53;;;;;;;31.74;43.50;101489.78;5277594;28;20028;-82
2023/06/17 09:16:34;;;;;;;6.82;4.80;;;;;;;32.16;42.18;101482.53;5281305;28;20035;-84
2023/06/17 09:19:13;;;;;;;7.43;5.13;;;;;;;32.27;42.09;101484.19;5282003;28;20020;-82
2023/06/17 09:21:47;;;;;;;7.78;5.47;;;;;;;32.20;41.77;101489.13;5278085;28;20143;-83
2023/06/17 09:24:27;;;;;;;5.67;4.80;;;;;;;32.48;42.27;101485.03;5275714;28;20095;-84
2023/06/17 09:26:59;;;;;;;5.53;4.40;;;;;;;32.14;40.22;101491.06;5271506;28;20098;-85
2023/06/17 09:29:33;;;;;;;6.57;4.78;;;;;;;32.28;39.78;101488.63;5273809;28;20028;-85
2023/06/17 09:32:05;;;;;;;7.43;4.30;;;;;;;32.44;40.38;101480.34;5277436;28;20027;-83
2023/06/17 09:34:50;;;;;;;8.07;4.25;;;;;;;32.79;40.41;101480.38;5275386;28;20043;-83
2023/06/17 09:37:25;;;;;;;8.60;4.25;;;;;;;32.95;41.15;101491.44;5280457;28;20028;-83
2023/06/17 09:39:58;;;;;;;7.70;4.20;;;;;;;33.24;41.18;101488.09;5286482;28;20025;-83
2023/06/17 09:42:30;;;;;;;7.28;4.03;;;;;;;33.40;40.06;101492.50;5290857;28;20032;-84
2023/06/17 09:45:06;;;;;;;7.57;3.83;;;;;;;33.89;39.93;101491.78;5284455;28;20223;-82
2023/06/17 09:47:37;;;;;;;7.38;3.75;;;;;;;33.81;38.40;101495.13;5277949;28;20032;-82
2023/06/17 09:50:10;;;;;;;7.28;3.90;;;;;;;33.94;38.48;101490.09;5283447;28;20036;-83
2023/06/17 09:52:43;;;;;;;8.60;4.18;;;;;;;33.91;38.64;101486.78;5273094;28;20519;-83
2023/06/17 09:55:15;;;;;;;6.72;3.38;;;;;;;34.20;37.50;101479.72;5279341;28;20040;-83
2023/06/17 09:57:53;;;;;;;5.35;3.75;;;;;;;34.37;38.04;101482.09;5279686;28;20561;-83
2023/06/17 10:00:24;;;;;;;6.13;3.80;;;;;;;34.69;37.24;101480.75;5275686;28;20027;-81
2023/06/17 10:02:56;;;;;;;6.90;4.18;;;;;;;34.25;36.01;101479.69;5274129;28;20031;-83
2023/06/17 10:05:27;;;;;;;7.18;4.15;;;;;;;34.00;35.46;101475.13;5289524;28;20028;-82
2023/06/17 10:08:03;;;;;;;4.10;3.80;;;;;;;34.14;34.20;101480.84;5296675;28;20053;-83
2023/06/17 10:10:35;;;;;;;7.95;4.22;;;;;;;34.10;35.06;101483.38;5291160;28;20029;-83
2023/06/17 10:13:08;;;;;;;6.28;3.25;;;;;;;34.18;35.41;101468.91;5291756;28;20031;-82
2023/06/17 10:15:40;;;;;;;6.45;3.47;;;;;;;34.49;34.67;101471.50;5282654;28;20032;-84
2023/06/17 10:18:13;;;;;;;3.47;3.17;;;;;;;34.67;35.23;101464.41;5291019;28;20027;-83
2023/06/17 10:20:47;;;;;;;3.83;3.45;;;;;;;34.80;33.02;101466.56;5278207;28;20047;-84
2023/06/17 10:23:21;;;;;;;6.38;3.80;;;;;;;34.90;33.61;101465.59;5289869;28;20035;-82
2023/06/17 10:25:53;;;;;;;5.87;3.37;;;;;;;34.98;32.18;101453.91;5285133;28;20028;-81
2023/06/17 10:28:24;;;;;;;4.72;3.38;;;;;;;35.48;33.60;101463.91;5271485;28;20044;-81
2023/06/17 10:30:57;;;;;;;4.27;3.07;;;;;;;35.03;31.93;101456.63;5279055;28;20088;-80
2023/06/17 10:33:28;;;;;;;6.47;3.20;;;;;;;35.00;32.76;101451.66;5273080;28;20074;-81
2023/06/17 10:36:07;;;;;;;4.00;3.45;;;;;;;35.52;33.11;101457.47;5274964;28;20142;-81
2023/06/17 10:38:38;;;;;;;3.92;2.70;;;;;;;35.43;33.62;101461.19;5273578;28;20039;-81
2023/06/17 10:41:10;;;;;;;4.63;3.40;;;;;;;35.50;32.41;101458.88;5278280;28;20020;-80
2023/06/17 10:43:41;;;;;;;5.22;3.55;;;;;;;35.67;31.32;101458.41;5280434;28;20289;-80
2023/06/17 10:46:12;;;;;;;7.03;2.90;;;;;;;36.22;31.16;101449.63;5279291;28;20431;-81
2023/06/17 10:48:46;;;;;;;4.63;2.80;;;;;;;36.34;31.31;101455.53;5272114;28;20755;-80
2023/06/17 10:51:18;;;;;;;3.40;3.10;;;;;;;36.42;30.38;101449.31;5276522;28;20455;-82
2023/06/17 10:53:50;;;;;;;6.38;2.58;;;;;;;36.27;29.17;101446.75;5272097;28;20176;-81
2023/06/17 10:56:21;;;;;;;4.35;2.25;;;;;;;36.24;28.73;101448.22;5280185;28;20062;-81
2023/06/17 10:58:53;;;;;;;4.43;2.60;;;;;;;36.59;29.39;101445.97;5272723;28;20028;-81
2023/06/17 11:01:24;;;;;;;3.92;2.45;;;;;;;36.40;29.66;101443.22;5279320;28;20035;-81
2023/06/17 11:03:58;;;;;;;3.80;2.53;;;;;;;35.97;29.07;101438.56;5271613;28;20580;-81
2023/06/17 11:06:31;;;;;;;3.63;2.37;;;;;;;36.40;28.52;101439.59;5277201;28;20290;-81
2023/06/17 11:09:04;;;;;;;4.40;2.88;;;;;;;36.00;29.82;101436.34;5271534;28;20032;-81
2023/06/17 11:11:36;;;;;;;3.35;2.97;;;;;;;35.75;29.47;101436.41;5271768;28;20042;-81
2023/06/17 11:14:07;;;;;;;5.55;2.50;;;;;;;36.10;29.98;101428.69;5275870;28;20024;-82
2023/06/17 11:16:39;;;;;;;3.08;2.53;;;;;;;36.05;28.90;101425.16;5279603;28;20114;-81
2023/06/17 11:19:12;;;;;;;3.42;3.13;;;;;;;36.35;29.18;101421.09;5277620;28;20035;-81
2023/06/17 11:21:43;;;;;;;5.93;3.15;;;;;;;36.51;30.05;101419.69;5279146;28;20411;-81
2023/06/17 11:24:15;;;;;;;4.47;2.60;;;;;;;36.80;28.67;101424.22;5273555;28;20189;-81
2023/06/17 11:26:46;;;;;;;4.30;2.80;;;;;;;36.50;28.67;101414.44;5273219;28;20531;-81
2023/06/17 11:29:18;;;;;;;9.35;3.10;;;;;;;36.88;29.41;101417.13;5279913;28;20808;-81
2023/06/17 11:31:50;;;;;;;4.57;2.80;;;;;;;37.03;28.89;101405.72;5276078;28;20037;-81
2023/06/17 11:34:22;;;;;;;5.30;3.05;;;;;;;36.74;28.81;101405.16;5276437;28;20049;-81
2023/06/17 11:36:53;;;;;;;4.35;2.83;;;;;;;36.89;29.08;101407.66;5271959;28;20039;-82
2023/06/17 11:39:28;;;;;;;5.28;2.72;;;;;;;36.65;28.77;101400.28;5271457;28;20063;-81